createdAt,value
2023-02-03T00:00:18.107Z,87.89
2023-02-03T00:02:48.297Z,87.67
2023-02-03T00:05:17.693Z,85.43
2023-02-03T00:07:47.431Z,87.57
2023-02-03T00:10:22.396Z,87.79
2023-02-03T00:12:58.760Z,87.69
2023-02-03T00:15:28.879Z,87.70
2023-02-03T00:17:58.427Z,85.83
2023-02-03T00:20:29.115Z,87.77
2023-02-03T00:23:09.499Z,86.84
2023-02-03T00:25:40.590Z,87.38
2023-02-03T00:28:10.676Z,87.49
2023-02-03T00:30:40.825Z,87.57
2023-02-03T00:33:10.659Z,87.93
2023-02-03T00:35:41.607Z,88.15
2023-02-03T00:38:11.609Z,88.31
2023-02-03T00:40:41.403Z,88.63
2023-02-03T00:43:10.947Z,86.76
2023-02-03T00:45:40.759Z,88.74
2023-02-03T00:48:10.684Z,88.74
2023-02-03T00:50:40.592Z,88.71
2023-02-03T00:53:10.567Z,88.63
2023-02-03T00:55:39.992Z,87.49
2023-02-03T00:58:09.794Z,88.67
2023-02-03T01:00:40.568Z,88.61
2023-02-03T01:03:09.971Z,86.81
2023-02-03T01:05:39.791Z,88.74
2023-02-03T01:08:09.683Z,89.07
2023-02-03T01:10:41.233Z,89.29
2023-02-03T01:13:11.315Z,89.29
2023-02-03T01:15:49.075Z,89.62
2023-02-03T01:18:19.207Z,89.85
2023-02-03T01:20:48.982Z,90.10
2023-02-03T01:23:18.999Z,90.27
2023-02-03T01:25:49.277Z,90.50
2023-02-03T01:28:19.388Z,90.73
2023-02-03T01:30:49.726Z,90.69
2023-02-03T01:33:19.793Z,91.01
2023-02-03T01:35:51.673Z,90.93
2023-02-03T01:38:21.253Z,88.76
2023-02-03T01:40:51.025Z,90.86
2023-02-03T01:43:51.426Z,90.30
2023-02-03T01:46:32.372Z,90.96
2023-02-03T01:49:12.350Z,91.25
2023-02-03T01:51:45.541Z,91.16
2023-02-03T01:54:22.209Z,91.19
2023-02-03T01:57:04.403Z,91.04
2023-02-03T01:59:35.969Z,91.32
2023-02-03T02:02:08.045Z,91.18
2023-02-03T02:04:48.277Z,91.30
2023-02-03T02:07:18.842Z,90.97
2023-02-03T02:09:49.166Z,91.06
2023-02-03T02:12:19.215Z,90.70
2023-02-03T02:14:49.673Z,88.96
2023-02-03T02:17:43.549Z,90.82
2023-02-03T02:20:38.627Z,90.81
2023-02-03T02:23:29.454Z,90.84
2023-02-03T02:26:21.459Z,90.67
2023-02-03T02:29:26.980Z,90.74
2023-02-03T02:32:06.151Z,91.14
2023-02-03T02:34:38.687Z,91.18
2023-02-03T02:37:16.538Z,91.25
2023-02-03T02:40:20.262Z,91.25
2023-02-03T02:43:09.111Z,91.11
2023-02-03T02:45:51.866Z,91.69
2023-02-03T02:48:27.908Z,90.67
2023-02-03T02:51:00.110Z,91.58
2023-02-03T02:53:36.457Z,91.62
2023-02-03T02:56:11.539Z,91.94
2023-02-03T02:58:45.101Z,92.22
2023-02-03T03:01:16.894Z,92.17
2023-02-03T03:03:47.444Z,92.00
2023-02-03T03:06:30.844Z,91.90
2023-02-03T03:09:04.508Z,92.05
2023-02-03T03:11:40.786Z,92.03
2023-02-03T03:14:14.918Z,92.17
2023-02-03T03:16:55.394Z,92.17
2023-02-03T03:19:42.946Z,92.29
2023-02-03T03:22:17.133Z,92.61
2023-02-03T03:24:57.108Z,92.20
2023-02-03T03:27:33.177Z,92.36
2023-02-03T03:30:19.003Z,92.25
2023-02-03T03:32:49.197Z,92.44
2023-02-03T03:35:20.618Z,92.35
2023-02-03T03:38:00.259Z,92.47
2023-02-03T03:40:38.739Z,92.65
2023-02-03T03:43:22.069Z,93.00
2023-02-03T03:46:15.967Z,92.55
2023-02-03T03:48:58.119Z,92.74
2023-02-03T03:51:33.947Z,92.89
2023-02-03T03:54:08.981Z,93.01
2023-02-03T03:56:45.362Z,92.95
2023-02-03T03:59:18.406Z,93.04
2023-02-03T04:01:50.367Z,92.87
2023-02-03T04:04:21.824Z,93.15
2023-02-03T04:06:51.900Z,92.93
2023-02-03T04:09:22.110Z,93.04
2023-02-03T04:12:04.417Z,93.23
2023-02-03T04:18:34.743Z,93.67
2023-02-03T04:21:05.023Z,93.85
2023-02-03T04:23:35.376Z,93.61
2023-02-03T04:26:05.805Z,93.69
2023-02-03T04:28:36.179Z,93.36
2023-02-03T04:31:06.718Z,93.53
2023-02-03T04:33:37.370Z,93.49
2023-02-03T04:36:07.994Z,93.53
2023-02-03T04:38:38.069Z,93.53
2023-02-03T04:41:08.111Z,93.73
2023-02-03T04:43:37.607Z,92.99
2023-02-03T04:46:07.407Z,93.28
2023-02-03T04:48:37.674Z,93.54
2023-02-03T04:51:09.608Z,93.18
2023-02-03T04:53:39.681Z,93.56
2023-02-03T04:56:09.705Z,94.36
2023-02-03T04:58:39.738Z,93.80
2023-02-03T05:01:10.518Z,93.77
2023-02-03T05:03:40.588Z,93.80
2023-02-03T05:06:10.428Z,93.72
2023-02-03T05:08:40.173Z,93.67
2023-02-03T05:11:10.293Z,94.13
2023-02-03T05:13:40.306Z,94.29
2023-02-03T05:16:09.858Z,93.39
2023-02-03T05:18:39.818Z,94.15
2023-02-03T05:21:10.110Z,93.93
2023-02-03T05:23:40.114Z,94.03
2023-02-03T05:26:10.324Z,93.97
2023-02-03T05:28:40.477Z,94.21
2023-02-03T05:31:10.581Z,94.38
2023-02-03T05:33:40.077Z,93.83
2023-02-03T05:36:10.717Z,94.42
2023-02-03T05:38:40.697Z,95.01
2023-02-03T05:41:32.570Z,95.00
2023-02-03T05:44:02.804Z,94.49
2023-02-03T05:46:32.619Z,94.74
2023-02-03T05:49:02.077Z,93.97
2023-02-03T05:51:31.817Z,94.15
2023-02-03T05:54:01.600Z,93.59
2023-02-03T05:56:31.281Z,94.15
2023-02-03T05:59:01.309Z,94.25
2023-02-03T06:01:31.459Z,94.36
2023-02-03T06:04:01.621Z,93.85
2023-02-03T06:06:35.449Z,94.99
2023-02-03T06:09:08.254Z,94.59
2023-02-03T06:11:38.373Z,94.44
2023-02-03T06:14:07.839Z,93.93
2023-02-03T06:16:37.656Z,94.91
2023-02-03T06:19:07.492Z,94.83
2023-02-03T06:21:37.267Z,95.19
2023-02-03T06:24:08.049Z,95.09
2023-02-03T06:26:38.133Z,95.05
2023-02-03T06:29:07.998Z,95.23
2023-02-03T06:31:37.650Z,94.20
2023-02-03T06:34:07.453Z,95.60
2023-02-03T06:36:37.720Z,95.75
2023-02-03T06:39:07.915Z,95.32
2023-02-03T06:41:38.147Z,95.46
2023-02-03T06:44:08.279Z,95.31
2023-02-03T06:46:37.838Z,94.76
2023-02-03T06:49:07.806Z,95.26
2023-02-03T06:51:38.057Z,95.56
2023-02-03T06:54:08.912Z,95.63
2023-02-03T06:56:39.061Z,95.57
2023-02-03T06:59:10.046Z,95.81
2023-02-03T07:01:40.157Z,96.23
2023-02-03T07:04:11.309Z,95.95
2023-02-03T07:06:41.411Z,95.89
2023-02-03T07:09:10.897Z,95.19
2023-02-03T07:11:44.035Z,95.83
2023-02-03T07:14:33.426Z,96.04
2023-02-03T07:17:06.498Z,96.14
2023-02-03T07:19:36.483Z,96.48
2023-02-03T07:22:06.567Z,96.49
2023-02-03T07:24:36.081Z,95.79
2023-02-03T07:27:05.985Z,96.66
2023-02-03T07:29:36.908Z,96.32
2023-02-03T07:32:07.050Z,96.32
2023-02-03T07:34:37.136Z,96.15
2023-02-03T07:37:07.203Z,96.12
2023-02-03T07:39:36.780Z,95.52
2023-02-03T07:42:07.060Z,96.15
2023-02-03T07:44:40.483Z,96.33
2023-02-03T07:47:12.479Z,96.11
2023-02-03T07:49:44.071Z,96.49
2023-02-03T07:52:14.123Z,97.03
2023-02-03T07:54:43.751Z,96.17
2023-02-03T07:57:13.425Z,96.51
2023-02-03T07:59:43.504Z,96.71
2023-02-03T08:02:13.027Z,96.13
2023-02-03T08:04:42.948Z,97.03
2023-02-03T08:07:12.983Z,97.00
2023-02-03T08:09:42.589Z,96.33
2023-02-03T08:12:12.398Z,96.67
2023-02-03T08:14:41.925Z,96.13
2023-02-03T08:17:11.858Z,97.60
2023-02-03T08:19:42.090Z,97.27
2023-02-03T08:22:17.351Z,97.69
2023-02-03T08:24:50.477Z,97.69
2023-02-03T08:27:23.279Z,97.47
2023-02-03T08:29:53.465Z,97.54
2023-02-03T08:32:25.922Z,97.23
2023-02-03T08:34:56.255Z,97.21
2023-02-03T08:37:27.040Z,97.10
2023-02-03T08:39:57.168Z,97.20
2023-02-03T08:42:26.814Z,96.65
2023-02-03T08:44:56.904Z,97.41
2023-02-03T08:47:27.873Z,97.37
2023-02-03T08:49:58.013Z,97.66
2023-02-03T08:52:27.581Z,97.33
2023-02-03T08:54:57.237Z,97.78
2023-02-03T08:57:27.455Z,97.91
2023-02-03T08:59:58.368Z,97.95
2023-02-03T09:02:28.385Z,98.01
2023-02-03T09:04:58.665Z,98.17
2023-02-03T09:07:28.882Z,98.07
2023-02-03T09:09:58.336Z,97.31
2023-02-03T09:12:28.023Z,97.63
2023-02-03T09:14:57.925Z,97.89
2023-02-03T09:17:29.185Z,98.29
2023-02-03T09:19:59.253Z,98.32
2023-02-03T09:22:28.791Z,97.58
2023-02-03T09:24:58.845Z,97.72
2023-02-03T09:27:28.809Z,97.71
2023-02-03T09:29:59.980Z,97.60
2023-02-03T09:32:29.918Z,97.32
2023-02-03T09:34:59.965Z,96.99
2023-02-03T09:37:31.696Z,96.91
2023-02-03T09:40:01.802Z,96.90
2023-02-03T09:42:58.595Z,96.98
2023-02-03T09:45:30.670Z,96.79
2023-02-03T09:48:20.097Z,96.80
2023-02-03T09:50:52.580Z,96.26
2023-02-03T09:53:46.462Z,96.17
2023-02-03T09:56:33.591Z,96.00
2023-02-03T09:59:04.489Z,95.70
2023-02-03T10:01:57.590Z,95.05
2023-02-03T10:04:32.790Z,95.67
2023-02-03T10:07:38.347Z,94.96
2023-02-03T10:10:41.007Z,95.48
2023-02-03T10:13:14.142Z,95.29
2023-02-03T10:16:09.270Z,94.67
2023-02-03T10:18:45.945Z,95.08
2023-02-03T10:21:39.131Z,95.95
2023-02-03T10:24:18.643Z,94.95
2023-02-03T10:26:48.869Z,95.29
2023-02-03T10:29:34.042Z,94.97
2023-02-03T10:32:04.143Z,95.42
2023-02-03T10:34:34.276Z,95.64
2023-02-03T10:37:13.119Z,95.19
2023-02-03T10:39:54.431Z,96.13
2023-02-03T10:42:25.637Z,95.89
2023-02-03T10:45:01.297Z,95.84
2023-02-03T10:47:39.648Z,95.24
2023-02-03T10:50:21.715Z,96.04
2023-02-03T10:52:51.774Z,95.86
2023-02-03T10:55:25.075Z,95.99
2023-02-03T10:57:56.774Z,96.17
2023-02-03T11:00:35.648Z,95.74
2023-02-03T11:03:23.570Z,95.32
2023-02-03T11:06:08.687Z,95.15
2023-02-03T11:08:41.499Z,95.00
2023-02-03T11:11:16.298Z,94.64
2023-02-03T11:13:46.318Z,94.54
2023-02-03T11:16:21.313Z,93.86
2023-02-03T11:19:12.042Z,94.32
2023-02-03T11:21:45.288Z,94.41
2023-02-03T11:24:28.144Z,94.43
2023-02-03T11:27:15.920Z,93.85
2023-02-03T11:29:51.668Z,94.52
2023-02-03T11:32:34.037Z,94.39
2023-02-03T11:35:20.099Z,94.09
2023-02-03T11:37:55.276Z,93.61
2023-02-03T11:40:35.458Z,94.17
2023-02-03T11:43:17.042Z,94.17
2023-02-03T11:45:54.713Z,94.58
2023-02-03T11:48:37.079Z,94.38
2023-02-03T11:51:24.869Z,94.28
2023-02-03T11:54:19.105Z,94.95
2023-02-03T11:57:10.822Z,95.10
2023-02-03T11:59:52.639Z,96.11
2023-02-03T12:02:46.868Z,96.18
2023-02-03T12:05:25.897Z,97.06
2023-02-03T12:08:15.833Z,97.39
2023-02-03T12:10:48.832Z,98.52
2023-02-03T12:14:06.098Z,97.43
2023-02-03T12:17:23.905Z,97.69
2023-02-03T12:20:06.891Z,98.42
2023-02-03T12:23:08.886Z,99.20
2023-02-03T12:26:05.182Z,99.42
2023-02-03T12:28:47.107Z,98.68
2023-02-03T12:31:19.767Z,98.95
2023-02-03T12:33:55.352Z,99.19
2023-02-03T12:36:50.277Z,99.12
2023-02-03T12:39:35.699Z,99.38
2023-02-03T12:42:17.990Z,99.21
2023-02-03T12:44:59.457Z,99.31
2023-02-03T12:47:36.085Z,99.30
2023-02-03T12:50:26.986Z,99.47
2023-02-03T12:53:18.937Z,99.30
2023-02-03T12:55:53.312Z,99.39
2023-02-03T12:58:48.903Z,98.93
2023-02-03T13:01:23.252Z,99.02
2023-02-03T13:04:26.724Z,98.88
2023-02-03T13:07:14.246Z,97.79
2023-02-03T13:10:14.408Z,97.07
2023-02-03T13:12:52.842Z,97.65
2023-02-03T13:15:37.755Z,96.62
2023-02-03T13:18:31.034Z,96.90
2023-02-03T13:21:01.096Z,96.01
2023-02-03T13:23:31.400Z,96.18
2023-02-03T13:26:26.495Z,95.61
2023-02-03T13:29:07.489Z,96.07
2023-02-03T13:31:54.379Z,95.38
2023-02-03T13:35:16.555Z,95.21
2023-02-03T13:38:12.600Z,95.57
2023-02-03T13:41:02.429Z,95.48
2023-02-03T13:43:40.211Z,96.15
2023-02-03T13:46:21.974Z,95.86
2023-02-03T13:48:52.736Z,95.86
2023-02-03T13:51:26.717Z,95.98
2023-02-03T13:54:04.118Z,94.56
2023-02-03T13:56:35.098Z,95.08
2023-02-03T13:59:17.307Z,94.01
2023-02-03T14:01:47.720Z,93.89
2023-02-03T14:04:49.716Z,95.10
2023-02-03T14:07:32.888Z,94.03
2023-02-03T14:10:14.733Z,94.30
2023-02-03T14:12:53.736Z,92.51
2023-02-03T14:15:31.929Z,91.47
2023-02-03T14:18:35.680Z,91.18
2023-02-03T14:21:19.933Z,89.36
2023-02-03T14:23:54.646Z,90.22
2023-02-03T14:26:33.875Z,87.93
2023-02-03T14:29:05.265Z,88.31
2023-02-03T14:32:00.003Z,88.18
2023-02-03T14:34:31.637Z,88.81
2023-02-03T14:37:21.830Z,88.04
2023-02-03T14:40:07.505Z,86.36
2023-02-03T14:43:18.371Z,86.23
2023-02-03T14:46:19.122Z,84.61
2023-02-03T14:49:07.433Z,84.90
2023-02-03T14:51:58.863Z,83.17
2023-02-03T14:54:49.533Z,82.85
2023-02-03T14:57:38.675Z,81.78
2023-02-03T15:00:20.542Z,80.02
2023-02-03T15:03:11.431Z,81.58
2023-02-03T15:05:44.321Z,76.97
2023-02-03T15:08:34.379Z,80.71
2023-02-03T15:11:27.039Z,78.10
2023-02-03T15:14:19.550Z,77.54
2023-02-03T15:17:02.602Z,78.72
2023-02-03T15:19:39.747Z,78.25
2023-02-03T15:22:30.749Z,83.05
2023-02-03T15:25:06.542Z,81.46
2023-02-03T15:27:36.572Z,79.79
2023-02-03T15:30:18.933Z,80.40
2023-02-03T15:32:52.287Z,82.15
2023-02-03T15:35:22.792Z,81.95
2023-02-03T15:38:07.533Z,81.95
2023-02-03T15:40:46.879Z,82.46
2023-02-03T15:43:28.136Z,82.54
2023-02-03T15:46:14.389Z,81.47
2023-02-03T15:49:05.038Z,84.08
2023-02-03T15:51:51.106Z,83.34
2023-02-03T15:54:31.536Z,82.99
2023-02-03T15:57:07.728Z,81.73
2023-02-03T15:59:38.431Z,83.39
2023-02-03T16:02:19.258Z,83.81
2023-02-03T16:04:53.793Z,82.25
2023-02-03T16:07:27.842Z,83.58
2023-02-03T16:10:01.801Z,84.48
2023-02-03T16:12:35.924Z,84.25
2023-02-03T16:15:06.260Z,82.81
2023-02-03T16:17:40.326Z,83.21
2023-02-03T16:20:13.103Z,84.90
2023-02-03T16:22:45.399Z,85.14
2023-02-03T16:25:26.211Z,84.26
2023-02-03T16:28:21.460Z,85.41
2023-02-03T16:31:22.493Z,86.54
2023-02-03T16:34:10.027Z,86.88
2023-02-03T16:37:03.321Z,86.98
2023-02-03T16:39:51.419Z,87.35
2023-02-03T16:42:41.520Z,87.84
2023-02-03T16:45:37.737Z,87.91
2023-02-03T16:48:25.846Z,88.16
2023-02-03T16:50:59.296Z,88.22
2023-02-03T16:53:33.079Z,88.30
2023-02-03T16:56:06.059Z,89.39
2023-02-03T16:58:36.147Z,90.68
2023-02-03T17:01:07.868Z,90.69
2023-02-03T17:03:38.642Z,94.45
2023-02-03T17:06:13.002Z,98.67
2023-02-03T17:08:43.609Z,99.26
2023-02-03T17:11:18.716Z,99.52
2023-02-03T17:13:49.810Z,99.19
2023-02-03T17:16:24.050Z,98.99
2023-02-03T17:19:03.195Z,99.99
2023-02-03T17:21:33.844Z,97.95
2023-02-03T17:24:04.282Z,99.47
2023-02-03T17:26:35.402Z,99.28
2023-02-03T17:29:05.968Z,98.65
2023-02-03T17:31:36.621Z,98.45
2023-02-03T17:34:08.058Z,97.17
2023-02-03T17:36:42.209Z,96.76
2023-02-03T17:55:51.083Z,96.41
2023-02-03T17:58:22.171Z,97.43
2023-02-03T18:00:52.925Z,96.02
2023-02-03T18:03:26.463Z,96.52
2023-02-03T18:06:00.339Z,96.26
2023-02-03T18:08:30.706Z,95.89
2023-02-03T18:11:02.017Z,95.87
2023-02-03T18:13:34.965Z,97.78
2023-02-03T18:16:07.659Z,96.56
2023-02-03T18:18:39.925Z,97.86
2023-02-03T18:21:12.125Z,97.01
2023-02-03T18:23:42.474Z,97.29
2023-02-03T18:26:14.327Z,98.19
2023-02-03T18:28:44.458Z,96.43
2023-02-03T18:31:18.604Z,94.48
2023-02-03T18:33:49.553Z,93.94
2023-02-03T18:36:19.798Z,94.96
2023-02-03T18:38:50.280Z,94.54
2023-02-03T18:41:23.123Z,92.86
2023-02-03T18:43:53.649Z,94.45
2023-02-03T18:46:28.711Z,95.13
2023-02-03T18:48:59.349Z,95.50
2023-02-03T18:51:30.036Z,93.68
2023-02-03T18:54:01.115Z,95.48
2023-02-03T18:56:38.192Z,95.28
2023-02-03T18:59:12.726Z,95.54
2023-02-03T19:01:42.802Z,92.94
2023-02-03T19:04:15.232Z,92.50
2023-02-03T19:06:46.700Z,94.92
2023-02-03T19:09:19.162Z,94.35
2023-02-03T19:11:49.358Z,92.70
2023-02-03T19:14:20.840Z,95.94
2023-02-03T19:16:52.863Z,95.71
2023-02-03T19:19:23.051Z,96.69
2023-02-03T19:21:53.382Z,95.56
2023-02-03T19:24:23.523Z,95.19
2023-02-03T19:26:53.671Z,96.62
2023-02-03T19:29:23.614Z,96.90
2023-02-03T19:31:53.796Z,95.89
2023-02-03T19:34:24.269Z,93.82
2023-02-03T19:37:13.788Z,97.10
2023-02-03T19:39:44.743Z,94.57
2023-02-03T19:42:14.899Z,97.03
2023-02-03T19:44:44.938Z,96.45
2023-02-03T19:47:14.966Z,97.52
2023-02-03T19:49:44.574Z,96.39
2023-02-03T19:52:14.315Z,97.60
2023-02-03T19:54:44.394Z,98.08
2023-02-03T19:57:13.862Z,96.83
2023-02-03T19:59:43.529Z,98.00
2023-02-03T20:02:15.592Z,97.36
2023-02-03T20:04:46.081Z,96.71
2023-02-03T20:07:16.307Z,97.54
2023-02-03T20:09:48.105Z,97.73
2023-02-03T20:12:37.596Z,96.97
2023-02-03T20:15:07.838Z,96.73
2023-02-03T20:17:38.506Z,97.47
2023-02-03T20:20:08.829Z,96.68
2023-02-03T20:22:38.931Z,96.62
2023-02-03T20:25:09.250Z,97.90
2023-02-03T20:27:39.444Z,97.86
2023-02-03T20:30:10.050Z,98.48
2023-02-03T20:32:40.664Z,98.32
2023-02-03T20:35:12.858Z,98.28
2023-02-03T20:37:42.973Z,98.13
2023-02-03T20:40:18.457Z,98.32
2023-02-03T20:42:48.638Z,98.09
2023-02-03T20:45:20.409Z,97.85
2023-02-03T20:47:51.236Z,97.96
2023-02-03T20:50:31.575Z,98.20
2023-02-03T20:53:07.244Z,97.85
2023-02-03T20:55:37.440Z,97.37
2023-02-03T20:58:26.017Z,97.26
2023-02-03T21:00:58.538Z,96.63
2023-02-03T21:03:46.782Z,97.98
2023-02-03T21:06:22.027Z,97.27
2023-02-03T21:08:52.144Z,97.74
2023-02-03T21:11:28.463Z,95.55
2023-02-03T21:13:59.528Z,96.69
2023-02-03T21:16:37.462Z,97.46
2023-02-03T21:19:16.795Z,97.87
2023-02-03T21:21:48.633Z,97.40
2023-02-03T21:24:23.756Z,97.49
2023-02-03T21:26:55.174Z,98.10
2023-02-03T21:29:37.962Z,98.45
2023-02-03T21:32:15.882Z,97.74
2023-02-03T21:34:46.926Z,98.34
2023-02-03T21:37:26.223Z,98.51
2023-02-03T21:39:56.331Z,98.35
2023-02-03T21:42:42.519Z,97.96
2023-02-03T21:45:18.379Z,98.70
2023-02-03T21:47:51.668Z,97.98
2023-02-03T21:50:36.486Z,97.93
2023-02-03T21:53:12.643Z,98.71
2023-02-03T21:55:44.359Z,99.07
2023-02-03T21:58:23.741Z,99.17
2023-02-03T22:01:02.686Z,98.84
2023-02-03T22:03:47.217Z,97.74
2023-02-03T22:06:21.294Z,98.40
2023-02-03T22:08:54.962Z,99.22
2023-02-03T22:11:27.885Z,99.01
2023-02-03T22:13:58.822Z,99.11
2023-02-03T22:16:30.338Z,97.38
2023-02-03T22:19:00.450Z,97.49
2023-02-03T22:21:30.047Z,96.24
2023-02-03T22:24:00.733Z,97.61
2023-02-03T22:26:31.006Z,99.99
2023-02-03T22:29:01.342Z,99.99
2023-02-03T22:31:31.592Z,99.99
2023-02-03T22:34:01.828Z,99.99
2023-02-03T22:36:31.684Z,99.99
2023-02-03T22:39:01.566Z,99.99
2023-02-03T22:41:31.644Z,99.99
2023-02-03T22:44:01.886Z,99.99
2023-02-03T22:46:31.963Z,99.99
2023-02-03T22:49:02.070Z,99.99
2023-02-03T22:51:31.612Z,99.99
2023-02-03T22:54:01.459Z,99.99
2023-02-03T22:56:31.721Z,99.99
2023-02-03T22:59:02.802Z,99.99
2023-02-03T23:01:32.577Z,99.99
2023-02-03T23:04:02.448Z,99.99
2023-02-03T23:06:31.993Z,99.99
2023-02-03T23:09:01.943Z,99.99
2023-02-03T23:11:32.561Z,99.99
2023-02-03T23:14:02.691Z,99.99
2023-02-03T23:16:32.594Z,99.99
2023-02-03T23:19:02.253Z,99.99
2023-02-03T23:21:32.092Z,99.99
2023-02-03T23:24:02.048Z,99.99
2023-02-03T23:26:31.939Z,99.99
2023-02-03T23:29:02.088Z,99.99
2023-02-03T23:31:31.712Z,99.99
2023-02-03T23:34:19.970Z,99.99
2023-02-03T23:36:50.099Z,99.99
2023-02-03T23:39:20.258Z,99.99
2023-02-03T23:41:49.839Z,99.99
2023-02-03T23:44:19.590Z,99.99
2023-02-03T23:46:49.459Z,99.99
2023-02-03T23:49:19.420Z,99.99
2023-02-03T23:51:49.009Z,99.99
2023-02-03T23:54:19.163Z,99.99
2023-02-03T23:56:48.771Z,99.99
2023-02-03T23:59:18.518Z,99.99
